Time;durP1;ratioP1;P1;durP2;ratioP2;P2;SDS_P1;SDS_P2;PMS_P1;PMS_P2;Temp;Humidity;BMP_temperature;BMP_pressure;BME280_temperature;BME280_humidity;BME280_pressure;Samples;Min_cycle;Max_cycle;Signal;HPM_P1;HPM_P2
2021/03/01 00:01:52;;;;;;;73.70;32.92;;;7.70;99.90;;;;;;4955081;28;20043;-54
2021/03/01 00:04:17;;;;;;;30.63;21.92;;;7.70;99.90;;;;;;4953355;29;20074;-52
2021/03/01 00:06:43;;;;;;;29.13;21.02;;;7.70;99.90;;;;;;4955011;29;20372;-50
2021/03/01 00:09:09;;;;;;;30.45;20.75;;;7.60;99.90;;;;;;4955027;28;20040;-52
2021/03/01 00:11:35;;;;;;;33.20;22.15;;;7.50;99.90;;;;;;4955114;28;20063;-51
2021/03/01 00:14:01;;;;;;;35.55;24.35;;;7.50;99.90;;;;;;4954857;28;20024;-47
2021/03/01 00:16:27;;;;;;;31.45;21.95;;;7.50;99.90;;;;;;4972141;28;20117;-53
2021/03/01 00:18:52;;;;;;;36.75;24.95;;;7.40;99.90;;;;;;4972188;28;20166;-54
2021/03/01 00:21:19;;;;;;;37.55;25.65;;;7.40;99.90;;;;;;4972165;28;20121;-52
2021/03/01 00:23:45;;;;;;;36.72;25.45;;;7.40;99.90;;;;;;4972548;28;20031;-52
2021/03/01 00:26:11;;;;;;;37.58;24.55;;;7.50;99.90;;;;;;4972347;28;20042;-49
2021/03/01 00:28:36;;;;;;;33.75;23.67;;;7.40;99.90;;;;;;4975470;28;20031;-53
2021/03/01 00:31:02;;;;;;;38.22;25.83;;;7.40;99.90;;;;;;4975464;28;20090;-50
2021/03/01 00:33:28;;;;;;;36.58;23.42;;;7.40;99.90;;;;;;4975768;28;20031;-51
2021/03/01 00:35:54;;;;;;;32.25;22.38;;;7.30;99.90;;;;;;4975288;28;20046;-53
2021/03/01 00:38:20;;;;;;;34.00;23.25;;;7.30;99.90;;;;;;4959348;28;20035;-52
2021/03/01 00:40:45;;;;;;;32.05;22.63;;;7.30;99.90;;;;;;4975370;28;20081;-55
2021/03/01 00:43:11;;;;;;;34.88;23.33;;;7.30;99.90;;;;;;4975483;28;20054;-47
2021/03/01 00:45:37;;;;;;;39.03;24.92;;;7.30;99.90;;;;;;4975468;28;20502;-52
2021/03/01 00:48:03;;;;;;;33.35;23.38;;;7.20;99.90;;;;;;4944854;29;20047;-53
2021/03/01 00:50:28;;;;;;;33.20;23.67;;;7.20;99.90;;;;;;4958127;28;20033;-49
2021/03/01 00:52:54;;;;;;;42.00;29.65;;;7.20;99.90;;;;;;4957686;28;20059;-50
2021/03/01 00:55:20;;;;;;;41.80;29.77;;;7.10;99.90;;;;;;4955972;28;20054;-53
2021/03/01 00:57:45;;;;;;;39.05;28.15;;;7.10;99.90;;;;;;4957873;28;20075;-52
2021/03/01 01:00:14;;;;;;;42.60;28.95;;;7.10;99.90;;;;;;4957893;28;20024;-55
2021/03/01 01:02:41;;;;;;;40.33;29.10;;;7.00;99.90;;;;;;4955702;29;20043;-51
2021/03/01 01:05:07;;;;;;;40.53;28.23;;;7.00;99.90;;;;;;4955508;29;20039;-50
2021/03/01 01:07:33;;;;;;;34.47;25.63;;;6.90;99.90;;;;;;4923878;29;20040;-53
2021/03/01 01:09:58;;;;;;;28.05;20.40;;;6.90;99.90;;;;;;4923940;29;20051;-50
2021/03/01 01:12:24;;;;;;;27.50;20.15;;;6.90;99.90;;;;;;4954957;29;20070;-49
2021/03/01 01:14:50;;;;;;;76.75;37.38;;;7.00;99.90;;;;;;4923384;29;20047;-54
2021/03/01 01:17:15;;;;;;;56.08;34.65;;;6.90;99.90;;;;;;4954623;29;20121;-55
2021/03/01 01:19:41;;;;;;;33.65;22.40;;;6.90;99.90;;;;;;4954773;29;20031;-49
2021/03/01 01:22:07;;;;;;;27.35;18.85;;;6.80;99.90;;;;;;4954872;29;20028;-49
2021/03/01 01:24:33;;;;;;;23.63;16.85;;;6.80;99.90;;;;;;4954606;29;20031;-49
2021/03/01 01:26:58;;;;;;;21.80;16.10;;;6.70;99.90;;;;;;4939072;28;20031;-53
2021/03/01 01:29:24;;;;;;;22.77;14.48;;;6.70;99.90;;;;;;4954669;29;20518;-52
2021/03/01 01:31:50;;;;;;;17.80;13.18;;;6.70;99.90;;;;;;4954901;29;20063;-52
2021/03/01 01:34:16;;;;;;;16.70;12.07;;;6.60;99.90;;;;;;4954824;29;20042;-54
2021/03/01 01:36:41;;;;;;;17.55;11.82;;;6.70;99.90;;;;;;4939076;28;20067;-50
2021/03/01 01:39:07;;;;;;;15.05;11.45;;;6.50;99.90;;;;;;4955007;28;20027;-50
2021/03/01 01:41:33;;;;;;;18.00;12.80;;;6.50;99.90;;;;;;4956963;28;20102;-51
2021/03/01 01:43:59;;;;;;;16.88;12.60;;;6.50;99.90;;;;;;4956848;28;20031;-52
2021/03/01 01:46:24;;;;;;;16.95;12.25;;;6.50;99.90;;;;;;4956931;28;20027;-49
2021/03/01 01:48:50;;;;;;;16.17;13.00;;;6.70;99.90;;;;;;4971242;28;20099;-52
2021/03/01 01:51:16;;;;;;;16.98;13.13;;;6.50;99.90;;;;;;4956728;28;20023;-53
2021/03/01 01:53:42;;;;;;;16.92;13.30;;;6.60;99.90;;;;;;4956696;28;20059;-49
2021/03/01 01:56:08;;;;;;;20.30;13.88;;;6.50;99.90;;;;;;4956827;28;20420;-46
2021/03/01 01:58:34;;;;;;;16.52;12.93;;;6.50;99.90;;;;;;4956935;28;20031;-54
2021/03/01 02:00:59;;;;;;;18.70;12.68;;;6.60;99.90;;;;;;4956642;28;20031;-52
2021/03/01 02:03:55;;;;;;;17.05;12.18;;;6.60;99.90;;;;;;4956653;28;20023;-50
2021/03/01 02:06:48;;;;;;;18.10;13.70;;;5.60;99.90;;;;;;4956697;28;20023;-51
2021/03/01 02:09:18;;;;;;;27.02;17.27;;;;;;;;;;4956580;28;20094;-53
2021/03/01 02:11:58;;;;;;;25.25;15.02;;;5.40;99.90;;;;;;4956471;28;20035;-48
2021/03/01 02:14:38;;;;;;;23.65;16.88;;;5.10;99.90;;;;;;4956230;28;20027;-48
2021/03/01 02:17:04;;;;;;;22.00;15.40;;;4.90;99.90;;;;;;4970611;28;20039;-53
2021/03/01 02:19:31;;;;;;;20.80;15.15;;;5.20;99.90;;;;;;4956262;28;20028;-54
2021/03/01 02:21:57;;;;;;;24.98;17.90;;;5.10;99.90;;;;;;4956405;28;20106;-50
2021/03/01 02:24:37;;;;;;;26.42;17.90;;;4.80;99.90;;;;;;4956248;28;20037;-47
2021/03/01 02:27:03;;;;;;;24.65;18.60;;;5.10;99.90;;;;;;4956242;28;20482;-49
2021/03/01 02:29:30;;;;;;;29.95;20.92;;;5.10;99.90;;;;;;4956021;28;20042;-49
2021/03/01 02:31:58;;;;;;;24.02;17.88;;;5.20;99.90;;;;;;4956372;28;20024;-49
2021/03/01 02:34:30;;;;;;;25.23;19.08;;;5.30;99.90;;;;;;4956021;28;20388;-49
2021/03/01 02:36:59;;;;;;;25.48;18.95;;;5.30;99.90;;;;;;4956367;28;20046;-50
2021/03/01 02:39:29;;;;;;;26.45;19.65;;;5.20;99.90;;;;;;4954216;29;20039;-54
2021/03/01 02:41:56;;;;;;;28.40;20.05;;;5.00;99.90;;;;;;4955991;28;20019;-51
2021/03/01 02:44:23;;;;;;;30.83;21.63;;;4.90;99.90;;;;;;4955863;28;20110;-50
2021/03/01 02:46:50;;;;;;;38.13;30.00;;;;;;;;;;4955903;28;20035;-50
2021/03/01 02:49:17;;;;;;;41.58;34.65;;;4.50;99.90;;;;;;4954830;28;20035;-52
2021/03/01 02:51:46;;;;;;;41.63;31.67;;;4.60;99.90;;;;;;4955201;28;20027;-53
2021/03/01 02:54:13;;;;;;;35.95;27.00;;;4.60;99.90;;;;;;4955528;28;20051;-52
2021/03/01 02:56:40;;;;;;;34.80;25.25;;;4.30;99.90;;;;;;4955617;28;20031;-46
2021/03/01 02:59:08;;;;;;;35.47;23.92;;;4.20;99.90;;;;;;4955637;28;20492;-52
2021/03/01 03:01:35;;;;;;;30.88;23.00;;;4.20;99.90;;;;;;4955749;28;20166;-53
2021/03/01 03:04:03;;;;;;;29.67;22.20;;;4.50;99.90;;;;;;4955567;28;20486;-51
2021/03/01 03:06:32;;;;;;;33.03;22.95;;;4.70;99.90;;;;;;4955604;28;20516;-50
2021/03/01 03:08:59;;;;;;;34.13;22.48;;;4.80;99.90;;;;;;4955535;28;20510;-47
2021/03/01 03:11:28;;;;;;;57.05;32.78;;;5.00;99.90;;;;;;4955502;28;20115;-50
2021/03/01 03:13:55;;;;;;;58.97;31.77;;;5.10;99.90;;;;;;4955673;28;20102;-48
2021/03/01 03:16:24;;;;;;;41.55;25.52;;;5.20;99.90;;;;;;4955548;28;20471;-48
2021/03/01 03:18:53;;;;;;;58.28;33.97;;;5.20;99.90;;;;;;4955463;28;20031;-50
2021/03/01 03:21:20;;;;;;;45.67;29.52;;;5.20;99.90;;;;;;4955504;28;20051;-51
2021/03/01 03:23:47;;;;;;;49.63;31.60;;;5.30;99.90;;;;;;4955562;28;20055;-51
2021/03/01 03:26:13;;;;;;;25.75;18.73;;;5.40;99.90;;;;;;4955611;28;20072;-53
2021/03/01 03:28:42;;;;;;;31.60;21.55;;;5.40;99.90;;;;;;4955438;28;20037;-53
2021/03/01 03:31:08;;;;;;;22.20;16.40;;;;;;;;;;4955318;28;20547;-47
2021/03/01 03:33:34;;;;;;;22.83;16.42;;;5.40;99.90;;;;;;4955525;28;20090;-51
2021/03/01 03:35:59;;;;;;;25.95;17.75;;;5.30;99.90;;;;;;4955332;28;20102;-51
2021/03/01 03:38:32;;;;;;;21.42;14.48;;;5.40;99.90;;;;;;4955360;28;20483;-50
2021/03/01 03:41:00;;;;;;;19.17;13.50;;;5.40;99.90;;;;;;4955290;28;20035;-53
2021/03/01 03:43:27;;;;;;;17.58;13.35;;;5.40;99.90;;;;;;4955284;28;20027;-53
2021/03/01 03:45:56;;;;;;;25.85;17.95;;;5.40;99.90;;;;;;4955357;28;20026;-48
2021/03/01 03:48:23;;;;;;;20.23;14.25;;;5.50;99.90;;;;;;4953664;29;20042;-51
2021/03/01 03:50:58;;;;;;;15.85;11.05;;;5.50;99.90;;;;;;4955253;28;20387;-48
2021/03/01 03:53:27;;;;;;;20.98;15.82;;;5.60;99.90;;;;;;4955060;28;20066;-55
2021/03/01 03:55:56;;;;;;;23.50;17.27;;;5.70;99.90;;;;;;4955175;28;20071;-51
2021/03/01 03:58:25;;;;;;;15.70;12.68;;;5.70;99.90;;;;;;4955347;28;20031;-49
2021/03/01 04:00:54;;;;;;;18.20;12.63;;;5.70;99.90;;;;;;4955212;28;20383;-55
2021/03/01 04:03:22;;;;;;;20.05;12.55;;;5.50;99.90;;;;;;4958136;28;20034;-53
2021/03/01 04:05:50;;;;;;;19.33;12.23;;;5.50;99.90;;;;;;4958684;28;20608;-52
2021/03/01 04:08:18;;;;;;;18.55;12.70;;;4.90;99.90;;;;;;4958726;28;20033;-52
2021/03/01 04:10:47;;;;;;;17.83;13.43;;;4.40;99.90;;;;;;4958685;28;20067;-48
2021/03/01 04:13:14;;;;;;;20.00;12.70;;;;;;;;;;4959555;28;20034;-50
2021/03/01 04:15:49;;;;;;;21.52;13.40;;;4.00;99.90;;;;;;4976239;28;20042;-48
2021/03/01 04:18:20;;;;;;;22.02;14.05;;;3.90;99.90;;;;;;4959806;28;20073;-52
2021/03/01 04:20:47;;;;;;;22.08;13.23;;;3.90;99.90;;;;;;4975839;28;20030;-50
2021/03/01 04:23:15;;;;;;;21.15;15.77;;;3.90;99.90;;;;;;4975609;28;20117;-52
2021/03/01 04:25:43;;;;;;;24.17;15.13;;;4.30;99.90;;;;;;4975573;28;20034;-49
2021/03/01 04:28:10;;;;;;;24.55;16.67;;;4.60;99.90;;;;;;4975688;28;20066;-52
2021/03/01 04:30:37;;;;;;;22.73;15.85;;;4.80;99.90;;;;;;4975604;28;20355;-50
2021/03/01 04:33:03;;;;;;;23.88;16.50;;;4.90;99.90;;;;;;4975736;28;20534;-49
2021/03/01 04:35:30;;;;;;;24.13;16.63;;;5.00;99.90;;;;;;4975346;28;20045;-50
2021/03/01 04:37:56;;;;;;;26.13;16.60;;;5.10;99.90;;;;;;4975319;28;20520;-48
2021/03/01 04:40:22;;;;;;;24.88;18.05;;;5.10;99.90;;;;;;4975471;28;20039;-51
2021/03/01 04:42:48;;;;;;;25.67;17.52;;;5.30;99.90;;;;;;4959159;28;20501;-51
2021/03/01 04:45:16;;;;;;;29.52;16.80;;;5.40;99.90;;;;;;4958849;28;20173;-50
2021/03/01 04:47:44;;;;;;;25.23;17.90;;;5.40;99.90;;;;;;4956331;29;20126;-55
2021/03/01 04:50:15;;;;;;;22.75;16.77;;;5.40;99.90;;;;;;4958054;28;20027;-50
2021/03/01 04:52:42;;;;;;;23.52;17.13;;;5.50;99.90;;;;;;4957310;29;20086;-51
2021/03/01 04:55:09;;;;;;;27.20;16.65;;;5.50;99.90;;;;;;4957749;28;20035;-53
2021/03/01 04:57:36;;;;;;;23.63;16.33;;;5.40;99.90;;;;;;4957907;28;20106;-50
2021/03/01 05:00:05;;;;;;;20.42;15.23;;;5.40;99.90;;;;;;4956198;29;20051;-52
2021/03/01 05:02:31;;;;;;;21.05;14.80;;;5.40;99.90;;;;;;4972056;28;20031;-52
2021/03/01 05:04:59;;;;;;;20.92;15.38;;;5.50;99.90;;;;;;4956020;29;20062;-52
2021/03/01 05:07:29;;;;;;;22.08;13.93;;;5.50;99.90;;;;;;4957621;28;20471;-50
2021/03/01 05:09:56;;;;;;;19.90;12.65;;;5.50;99.90;;;;;;4957554;28;20542;-51
2021/03/01 05:12:22;;;;;;;20.73;14.18;;;5.40;99.90;;;;;;4957608;29;20024;-50
2021/03/01 05:14:48;;;;;;;19.65;13.63;;;5.30;99.90;;;;;;4956566;28;20122;-51
2021/03/01 05:17:13;;;;;;;20.20;14.50;;;5.30;99.90;;;;;;4971753;28;20035;-52
2021/03/01 05:19:39;;;;;;;21.00;14.23;;;5.30;99.90;;;;;;4957438;29;20031;-50
2021/03/01 05:22:05;;;;;;;19.05;13.38;;;5.30;99.90;;;;;;4957648;28;20118;-48
2021/03/01 05:24:30;;;;;;;20.90;13.65;;;5.40;99.90;;;;;;4957341;28;20082;-55
2021/03/01 05:26:58;;;;;;;20.48;13.90;;;5.50;99.90;;;;;;4971740;28;20043;-51
2021/03/01 05:29:23;;;;;;;21.60;14.65;;;5.60;99.90;;;;;;4957334;28;20031;-51
2021/03/01 05:31:49;;;;;;;20.63;13.65;;;5.60;99.90;;;;;;4957365;29;20038;-53
2021/03/01 05:34:15;;;;;;;21.08;13.05;;;5.70;99.90;;;;;;4957201;28;20039;-51
2021/03/01 05:36:42;;;;;;;22.85;13.27;;;5.70;99.90;;;;;;4957111;28;20050;-53
2021/03/01 05:39:08;;;;;;;22.55;13.25;;;5.90;99.90;;;;;;4957065;29;20035;-50
2021/03/01 05:41:35;;;;;;;20.25;13.57;;;5.90;99.90;;;;;;4971494;28;20036;-53
2021/03/01 05:44:00;;;;;;;16.67;12.60;;;6.00;99.90;;;;;;4956933;28;20031;-50
2021/03/01 05:46:27;;;;;;;22.25;13.27;;;5.90;99.90;;;;;;4957040;28;20360;-50
2021/03/01 05:48:56;;;;;;;20.15;13.52;;;6.00;99.90;;;;;;4956894;28;20019;-54
2021/03/01 05:51:25;;;;;;;23.23;12.60;;;6.20;99.90;;;;;;4956945;28;20027;-53
2021/03/01 05:53:57;;;;;;;23.13;13.20;;;6.30;99.90;;;;;;4956637;28;20055;-50
2021/03/01 05:56:23;;;;;;;17.83;12.68;;;6.40;99.90;;;;;;4956504;29;20412;-51
2021/03/01 05:58:51;;;;;;;21.30;12.55;;;6.50;99.90;;;;;;4956727;28;20035;-53
2021/03/01 06:01:17;;;;;;;15.48;11.07;;;6.90;99.90;;;;;;4956732;28;20463;-51
2021/03/01 06:03:43;;;;;;;21.08;12.98;;;7.40;99.90;;;;;;4956814;28;20159;-54
2021/03/01 06:06:12;;;;;;;16.88;11.02;;;8.30;99.90;;;;;;4956803;28;20031;-48
2021/03/01 06:08:38;;;;;;;16.38;11.13;;;;;;;;;;4956458;28;20046;-51
2021/03/01 06:11:06;;;;;;;16.23;11.13;;;10.00;99.90;;;;;;4956522;29;20024;-55
2021/03/01 06:13:33;;;;;;;20.50;10.60;;;11.00;99.90;;;;;;4955982;29;20030;-51
2021/03/01 06:16:00;;;;;;;15.25;10.80;;;11.70;99.50;;;;;;4956404;28;20039;-50
2021/03/01 06:18:26;;;;;;;19.92;12.13;;;12.40;96.00;;;;;;4956733;28;20062;-53
2021/03/01 06:20:54;;;;;;;55.15;40.00;;;;;;;;;;4956369;29;20442;-51
2021/03/01 06:23:34;;;;;;;26.85;21.60;;;14.20;99.90;;;;;;4956500;28;20081;-53
2021/03/01 06:26:20;;;;;;;15.77;11.68;;;14.60;88.80;;;;;;4956303;28;20063;-54
2021/03/01 06:28:47;;;;;;;17.23;13.40;;;;;;;;;;4956186;28;20035;-51
2021/03/01 06:31:35;;;;;;;17.65;12.82;;;15.90;75.20;;;;;;4955226;29;20086;-53
2021/03/01 06:34:25;;;;;;;48.00;13.52;;;16.60;74.20;;;;;;4951934;28;20063;-52
2021/03/01 06:37:10;;;;;;;17.10;11.27;;;;;;;;;;4953838;29;20368;-52
2021/03/01 06:39:46;;;;;;;17.33;11.75;;;17.70;88.90;;;;;;4956412;28;20034;-51
2021/03/01 06:42:20;;;;;;;15.80;10.82;;;18.30;63.00;;;;;;4955205;28;20015;-49
2021/03/01 06:44:58;;;;;;;15.10;10.57;;;18.70;61.20;;;;;;4955739;28;20031;-54
2021/03/01 06:47:46;;;;;;;13.48;10.73;;;19.40;59.20;;;;;;4955752;28;20031;-51
2021/03/01 06:50:21;;;;;;;16.58;10.77;;;;;;;;;;4955726;28;20035;-52
2021/03/01 06:52:46;;;;;;;12.90;10.30;;;20.50;54.90;;;;;;4954919;28;20039;-56
2021/03/01 06:55:12;;;;;;;12.15;9.27;;;20.00;54.10;;;;;;4955690;29;20042;-53
2021/03/01 06:57:38;;;;;;;14.68;10.43;;;20.60;53.40;;;;;;4937855;29;20039;-53
2021/03/01 07:00:05;;;;;;;15.02;9.45;;;20.80;52.00;;;;;;4954753;28;20038;-52
2021/03/01 07:02:38;;;;;;;16.00;9.70;;;;;;;;;;4969666;28;20047;-51
2021/03/01 07:05:04;;;;;;;15.75;9.65;;;20.90;51.50;;;;;;4955508;28;20041;-54
2021/03/01 07:07:37;;;;;;;14.43;9.75;;;20.30;52.00;;;;;;4955543;28;20035;-53
2021/03/01 07:10:07;;;;;;;13.77;10.00;;;20.70;51.60;;;;;;4953833;29;20043;-53
2021/03/01 07:12:37;;;;;;;15.48;11.23;;;20.20;52.30;;;;;;4969775;28;20097;-50
2021/03/01 07:15:05;;;;;;;13.65;11.45;;;20.30;51.80;;;;;;4955602;28;20038;-52
2021/03/01 07:17:31;;;;;;;12.80;10.85;;;19.10;51.60;;;;;;4969438;28;20097;-52
2021/03/01 07:19:57;;;;;;;13.23;10.70;;;19.30;52.90;;;;;;4955076;28;20031;-52
2021/03/01 07:22:24;;;;;;;13.98;11.43;;;19.90;52.70;;;;;;4955511;28;20038;-52
2021/03/01 07:24:54;;;;;;;16.73;12.52;;;20.00;51.60;;;;;;4955519;28;20475;-52
2021/03/01 07:27:21;;;;;;;18.20;12.43;;;19.90;51.60;;;;;;4955459;28;20063;-49
2021/03/01 07:29:51;;;;;;;16.70;11.05;;;19.40;53.70;;;;;;4955328;28;20395;-50
2021/03/01 07:32:21;;;;;;;14.68;12.13;;;21.00;62.90;;;;;;4953513;29;20071;-52
2021/03/01 07:34:49;;;;;;;14.98;11.65;;;19.90;52.70;;;;;;4955290;28;20071;-50
2021/03/01 07:37:14;;;;;;;12.88;9.48;;;19.10;72.30;;;;;;4956741;28;20106;-54
2021/03/01 07:39:40;;;;;;;12.55;9.52;;;19.10;52.80;;;;;;4973602;28;20175;-53
2021/03/01 07:42:09;;;;;;;12.63;10.35;;;17.60;57.20;;;;;;4959082;28;20364;-53
2021/03/01 07:44:36;;;;;;;14.05;10.10;;;17.60;78.60;;;;;;4973726;28;20506;-53
2021/03/01 07:47:04;;;;;;;12.82;9.73;;;18.10;54.00;;;;;;4959098;28;20070;-50
2021/03/01 07:49:51;;;;;;;14.05;10.43;;;17.90;54.30;;;;;;4958996;28;20035;-53
2021/03/01 07:52:19;;;;;;;13.30;10.35;;;18.60;53.80;;;;;;4959517;28;20035;-52
2021/03/01 07:55:09;;;;;;;13.80;11.50;;;18.80;74.20;;;;;;4958864;28;20423;-55
2021/03/01 07:57:37;;;;;;;13.02;10.68;;;18.80;72.70;;;;;;4959101;28;20031;-55
2021/03/01 08:00:26;;;;;;;14.15;9.13;;;18.50;72.60;;;;;;4958828;28;20031;-51
2021/03/01 08:02:53;;;;;;;14.23;10.23;;;17.40;74.20;;;;;;4958900;28;20035;-51
2021/03/01 08:05:36;;;;;;;14.70;10.70;;;17.60;81.00;;;;;;4957055;29;20035;-52
2021/03/01 08:08:02;;;;;;;22.13;10.70;;;17.10;81.40;;;;;;4958663;28;20027;-52
2021/03/01 08:10:28;;;;;;;15.68;9.88;;;18.10;76.20;;;;;;4941120;29;20045;-52
2021/03/01 08:12:58;;;;;;;16.20;10.75;;;17.50;70.00;;;;;;4958700;28;20254;-48
2021/03/01 08:15:28;;;;;;;11.55;6.53;;;16.50;86.50;;;;;;4958858;28;20036;-50
2021/03/01 08:17:56;;;;;;;20.95;11.80;;;14.80;62.40;;;;;;4956968;29;20036;-52
2021/03/01 08:20:25;;;;;;;14.52;9.98;;;;;;;;;;4958702;28;20054;-52
2021/03/01 08:23:05;;;;;;;16.98;9.98;;;16.10;75.80;;;;;;4958533;28;20054;-55
2021/03/01 08:25:50;;;;;;;15.68;9.32;;;16.60;79.80;;;;;;4958563;28;20038;-49
2021/03/01 08:28:16;;;;;;;11.73;7.78;;;17.50;56.50;;;;;;4958539;28;20035;-54
2021/03/01 08:30:49;;;;;;;13.40;9.38;;;15.90;57.10;;;;;;4958514;28;20507;-52
2021/03/01 08:33:15;;;;;;;10.95;7.05;;;17.20;58.70;;;;;;4958835;28;20180;-54
2021/03/01 08:35:51;;;;;;;14.30;11.15;;;;;;;;;;4958314;28;20180;-54
2021/03/01 08:38:18;;;;;;;15.80;11.05;;;;;;;;;;4958430;28;20038;-53
2021/03/01 08:40:57;;;;;;;16.65;8.68;;;;;;;;;;4958256;28;20511;-50
2021/03/01 08:43:52;;;;;;;13.73;9.27;;;;;;;;;;4958057;28;20030;-51
2021/03/01 08:46:21;;;;;;;15.18;11.68;;;;;;;;;;4936936;29;20558;-52
2021/03/01 08:48:49;;;;;;;14.63;10.38;;;;;;;;;;4919978;29;20495;-53
2021/03/01 08:51:16;;;;;;;16.83;9.77;;;;;;;;;;4920399;29;20040;-55
2021/03/01 08:53:42;;;;;;;13.93;9.65;;;16.40;57.00;;;;;;4936353;29;20048;-50
2021/03/01 08:56:16;;;;;;;11.75;8.80;;;;;;;;;;4936447;29;20510;-51
2021/03/01 08:58:42;;;;;;;11.88;9.32;;;14.60;94.90;;;;;;4935323;29;20028;-51
2021/03/01 09:01:08;;;;;;;13.77;10.10;;;15.40;81.30;;;;;;4919929;29;20135;-48
2021/03/01 09:03:35;;;;;;;14.57;9.73;;;16.10;73.90;;;;;;4936061;29;20168;-49
2021/03/01 09:06:08;;;;;;;13.80;10.88;;;;;;;;;;4936349;29;20107;-53
2021/03/01 09:08:38;;;;;;;13.48;10.48;;;;;;;;;;4936391;29;20472;-46
2021/03/01 09:11:06;;;;;;;12.15;7.25;;;;;;;;;;4936389;29;20087;-48
2021/03/01 09:13:35;;;;;;;17.67;10.63;;;15.70;93.70;;;;;;4920618;29;20527;-52
2021/03/01 09:16:09;;;;;;;15.05;9.00;;;;;;;;;;4936198;29;20052;-49
2021/03/01 09:18:35;;;;;;;25.75;12.45;;;;;;;;;;4936309;29;20067;-51
2021/03/01 09:21:03;;;;;;;16.80;13.52;;;;;;;;;;4936483;29;20071;-51
2021/03/01 09:23:33;;;;;;;17.90;12.85;;;;;;;;;;4949439;29;20040;-49
2021/03/01 09:25:59;;;;;;;15.25;11.35;;;16.00;93.80;;;;;;4957314;28;20020;-48
2021/03/01 09:28:37;;;;;;;19.00;12.75;;;;;;;;;;4957452;28;20098;-47
2021/03/01 09:31:11;;;;;;;15.85;12.75;;;16.70;94.50;;;;;;4957478;28;20027;-47
2021/03/01 09:33:38;;;;;;;94.78;46.17;;;17.10;65.50;;;;;;4972114;28;20039;-50
2021/03/01 09:36:06;;;;;;;16.30;12.60;;;16.10;57.90;;;;;;4957589;28;20039;-49
2021/03/01 09:38:33;;;;;;;15.25;12.32;;;16.30;58.10;;;;;;4974499;28;20133;-49
2021/03/01 09:41:07;;;;;;;18.67;14.20;;;16.10;59.20;;;;;;4974584;28;20046;-50
2021/03/01 09:43:34;;;;;;;19.63;17.50;;;15.70;59.40;;;;;;4974732;28;20491;-51
2021/03/01 09:46:01;;;;;;;20.58;15.25;;;15.50;59.30;;;;;;4974540;28;20027;-50
2021/03/01 09:48:35;;;;;;;17.10;13.27;;;15.80;60.80;;;;;;4958220;28;20046;-48
2021/03/01 09:51:03;;;;;;;13.07;11.68;;;15.70;60.30;;;;;;4974269;28;20026;-50
2021/03/01 09:53:29;;;;;;;13.38;11.32;;;16.10;60.00;;;;;;4973909;28;20054;-51
2021/03/01 09:55:55;;;;;;;15.82;11.77;;;15.70;60.10;;;;;;4973982;28;20062;-48
2021/03/01 09:58:31;;;;;;;29.17;21.40;;;16.10;59.20;;;;;;4973953;28;20122;-51
2021/03/01 10:01:15;;;;;;;19.52;14.18;;;15.80;83.20;;;;;;4973609;28;20042;-51
2021/03/01 10:03:45;;;;;;;34.97;23.83;;;;;;;;;;4974156;28;20054;-48
2021/03/01 10:06:12;;;;;;;29.63;23.90;;;;;;;;;;4974176;28;20070;-49
2021/03/01 10:08:39;;;;;;;30.95;23.08;;;16.60;80.90;;;;;;4971648;28;20051;-48
2021/03/01 10:11:22;;;;;;;29.98;21.52;;;16.40;70.00;;;;;;4956577;28;20052;-52
2021/03/01 10:13:48;;;;;;;41.15;26.08;;;16.20;58.80;;;;;;4956498;28;20027;-50
2021/03/01 10:16:27;;;;;;;15.07;12.32;;;17.50;58.30;;;;;;4970968;28;20047;-47
2021/03/01 10:18:53;;;;;;;12.88;10.35;;;17.70;70.60;;;;;;4956481;28;20090;-49
2021/03/01 10:21:30;;;;;;;14.60;11.27;;;17.00;73.00;;;;;;4956477;28;20031;-46
2021/03/01 10:24:04;;;;;;;16.27;11.88;;;17.40;73.20;;;;;;4956352;28;20126;-48
2021/03/01 10:26:30;;;;;;;14.85;12.45;;;17.70;71.50;;;;;;4956202;28;20110;-46
2021/03/01 10:28:55;;;;;;;14.70;11.52;;;17.80;79.90;;;;;;4956366;28;20118;-47
2021/03/01 10:31:41;;;;;;;14.45;10.27;;;17.20;55.00;;;;;;4954562;29;20501;-47
2021/03/01 10:34:14;;;;;;;13.70;11.32;;;16.90;55.90;;;;;;4956010;28;20040;-48
2021/03/01 10:48:12;;;;;;;12.45;10.27;;;16.10;56.70;;;;;;5153193;27;20649;-47
2021/03/01 10:50:39;;;;;;;18.90;11.20;;;16.80;55.40;;;;;;5133566;27;20041;-49
2021/03/01 10:53:05;;;;;;;16.08;11.35;;;17.00;57.40;;;;;;5152659;27;20035;-47
2021/03/01 10:55:31;;;;;;;16.80;12.13;;;;;;;;;;5152275;27;20486;-46
2021/03/01 10:57:56;;;;;;;16.45;11.38;;;18.30;91.30;;;;;;5152465;27;20019;-46
2021/03/01 11:00:22;;;;;;;11.82;9.68;;;17.60;87.30;;;;;;5152563;27;20056;-48
2021/03/01 11:02:48;;;;;;;15.80;12.38;;;;;;;;;;5099305;27;20099;-49
2021/03/01 11:05:14;;;;;;;12.77;10.40;;;16.70;60.40;;;;;;5152517;27;20029;-45
2021/03/01 11:07:40;;;;;;;14.45;10.48;;;16.80;57.00;;;;;;5152312;27;20047;-46
2021/03/01 11:10:06;;;;;;;14.32;10.73;;;16.60;56.10;;;;;;5152319;27;20377;-48
2021/03/01 11:12:32;;;;;;;13.45;12.05;;;16.50;56.30;;;;;;5152164;27;20023;-46
2021/03/01 11:14:58;;;;;;;14.98;11.07;;;17.20;56.10;;;;;;5152271;27;20419;-46
2021/03/01 11:17:23;;;;;;;26.80;15.85;;;17.30;55.70;;;;;;5151745;27;20087;-46
2021/03/01 11:19:49;;;;;;;45.00;23.70;;;16.80;55.80;;;;;;5152129;27;20019;-45
2021/03/01 11:22:15;;;;;;;24.00;14.43;;;;;;;;;;5152050;27;20022;-47
2021/03/01 11:24:41;;;;;;;31.40;16.17;;;17.80;55.70;;;;;;5152049;27;20015;-45
2021/03/01 11:27:07;;;;;;;25.33;17.10;;;17.20;55.60;;;;;;5151616;27;20518;-48
2021/03/01 11:29:33;;;;;;;18.00;13.30;;;17.30;56.00;;;;;;5151761;27;20106;-47
2021/03/01 11:31:59;;;;;;;39.35;24.45;;;16.80;56.10;;;;;;5151921;27;20019;-49
2021/03/01 11:34:25;;;;;;;35.67;20.50;;;17.00;56.70;;;;;;5151792;27;20471;-48
2021/03/01 11:36:50;;;;;;;17.02;13.30;;;16.60;56.60;;;;;;5151685;27;20083;-47
2021/03/01 11:39:16;;;;;;;31.85;19.67;;;;;;;;;;5151643;27;20046;-47
2021/03/01 11:41:42;;;;;;;26.00;16.08;;;18.20;59.20;;;;;;5152287;27;20412;-46
2021/03/01 11:44:08;;;;;;;129.25;55.53;;;17.80;76.50;;;;;;5151401;27;20049;-48
2021/03/01 11:46:35;;;;;;;23.77;14.73;;;;;;;;;;5151333;27;20057;-46
2021/03/01 11:49:01;;;;;;;34.83;20.17;;;;;;;;;;5138468;27;20462;-49
2021/03/01 11:51:27;;;;;;;20.85;14.20;;;16.60;92.30;;;;;;5101562;27;20027;-46
2021/03/01 11:53:52;;;;;;;13.85;11.85;;;16.80;57.70;;;;;;5118560;27;20038;-46
2021/03/01 11:56:20;;;;;;;37.65;19.92;;;17.60;54.50;;;;;;5137145;27;20034;-49
2021/03/01 11:58:45;;;;;;;58.90;30.15;;;16.80;55.90;;;;;;5137319;27;20031;-47
2021/03/01 12:01:11;;;;;;;13.55;10.73;;;16.70;56.10;;;;;;5137693;27;20027;-48
2021/03/01 12:03:39;;;;;;;53.58;25.55;;;17.50;55.40;;;;;;5136662;27;20023;-49
2021/03/01 12:06:05;;;;;;;28.10;18.85;;;16.80;55.90;;;;;;5137182;27;20028;-47
2021/03/01 12:08:31;;;;;;;14.85;11.15;;;17.10;56.00;;;;;;5101496;27;20035;-49
2021/03/01 12:10:56;;;;;;;38.15;24.00;;;17.10;56.30;;;;;;5137119;27;20106;-48
2021/03/01 12:13:22;;;;;;;19.08;12.13;;;16.40;57.40;;;;;;5137053;27;20023;-48
2021/03/01 12:15:48;;;;;;;21.05;14.25;;;16.40;58.10;;;;;;5136969;27;20035;-48
2021/03/01 12:18:14;;;;;;;35.63;22.95;;;16.40;57.90;;;;;;5137248;27;20068;-47
2021/03/01 12:20:40;;;;;;;62.97;36.53;;;;;;;;;;5136948;27;20027;-48
2021/03/01 12:23:06;;;;;;;50.15;33.10;;;16.30;66.60;;;;;;5137081;27;20102;-48
2021/03/01 12:25:33;;;;;;;20.02;14.63;;;16.10;60.70;;;;;;5118221;27;20035;-48
2021/03/01 12:27:59;;;;;;;23.67;16.80;;;16.00;58.70;;;;;;5067394;27;20078;-47
2021/03/01 12:30:25;;;;;;;27.75;20.77;;;;;;;;;;5137042;27;20031;-48
2021/03/01 12:32:50;;;;;;;13.57;10.82;;;17.10;76.50;;;;;;5136743;27;20011;-48
2021/03/01 12:35:16;;;;;;;15.13;11.23;;;17.00;81.20;;;;;;5136981;27;20373;-49
2021/03/01 12:37:42;;;;;;;20.85;15.65;;;17.30;80.10;;;;;;5132761;27;20043;-46
2021/03/01 12:40:09;;;;;;;13.77;9.27;;;16.90;57.90;;;;;;5123121;27;20030;-48
2021/03/01 12:42:34;;;;;;;15.07;12.68;;;16.70;58.80;;;;;;5093495;28;20566;-46
2021/03/01 12:45:01;;;;;;;12.60;8.55;;;16.70;58.40;;;;;;5093777;28;20066;-48
2021/03/01 12:47:27;;;;;;;14.82;10.20;;;16.20;59.30;;;;;;5026030;28;20201;-46
2021/03/01 12:49:53;;;;;;;13.77;9.48;;;16.20;58.70;;;;;;5093521;28;20110;-46
2021/03/01 12:52:19;;;;;;;15.48;9.88;;;;;;;;;;5093666;28;20573;-46
2021/03/01 12:54:45;;;;;;;12.63;8.88;;;;;;;;;;5093408;28;20028;-49
2021/03/01 12:57:11;;;;;;;12.85;8.65;;;15.90;92.10;;;;;;5090985;28;20047;-53
2021/03/01 12:59:37;;;;;;;10.73;8.95;;;;;;;;;;5091059;28;20135;-51
2021/03/01 13:02:04;;;;;;;14.63;10.23;;;15.60;85.70;;;;;;5093092;28;20036;-49
2021/03/01 13:04:30;;;;;;;13.88;9.68;;;15.40;59.40;;;;;;5092961;28;20073;-48